Grand Forks Air Force Base
KRDR : rendu visible

Aérodrome :











RETROUVEZ-NOUS SUR...

 
LOGIN :

S'inscrire | Disclaimer

   EN    FR    IT 

 









Légende :    VFR   VFR Marginal   IFR   IFR Intensif   IFR Très Intensif
Visi : 
Plafond : 
>= 8 km
>= 3000ft
5 à 8 km
1000 à 3000 ft
1500m à 5 km
500 à 1000 ft
800 à 1500m
200 à 500 ft
< 800m
< 200 ft
Symboles :   Orages  Brouillard  Fortes neiges  Fortes précipitations  Vent > 20 kt






- Altitude de l'aérodrome : 913 ft


KRDR - Grand Forks Air Force Base

DERNIER METAR :
  • 080956Z AUTO 30011KT 10SM CLR 02/01 A2981 RMK AO2 SLP108 T00220006 $

METARs EXPIRÉS :
  • 080856Z AUTO 30011KT 10SM CLR 03/02 A2979 RMK AO2 SLP100 T00300020 52019 $
  • 080756Z AUTO 29008KT 10SM CLR 02/02 A2977 RMK AO2 SLP094 T00200019 $

TAF TAF KRDR
Valide du 08 à 10h jusqu'au 09 à 16h UTC


081000Z 0810/0916 29010G15KT 9999 FEW020 QNH2980INS
BECMG 0813/0814 30020G25KT 9999 SCT020 620209 510009 QNH2980INS
BECMG 0817/0818 30020G30KT 9999 VCSH BKN015 610159 520009 QNH2981INS
TEMPO 0818/0823 31025G35KT 9000 -SHRA BKN010
BECMG 0823/0824 33010G20KT 9999 NSW SCT030 620309 520009 QNH2982INS
BECMG 0913/0914 33015G25KT 9999 SCT050 620309 520009 QNH2989INS TX05/0819Z TN01/0910Z



MET'MAP, la Météo Aéronautique d'un coup d'oeil ! - Copyright ORBIFLY Décembre 2007 - Disclaimer

ORBIFLY MET'MAP TEAM :

Programmation & Développement : Alexandra Zaïnal
Sur une idée originale de : Baudouin d'Aumeries
Assistance à la programmation : Marc-Olivier Méhu
Soutien technique & logistique : Manuel Goepfert

Contact : metmap@orbifly.com




SOURCES & CREDITS :

   NOAA       Earth
Advisory